Talca, Chile
Current Conditions -  °F | °C
As of 2:00 PM on Friday 19 Dec 2014 (Local Time) from SCIC Reporting Station
Clear Clear  
Wind Chill: 79°   Ceiling: Unl
Heat Index: 79°   Visibility: 6mi
Dew Point: 52°   Wind: 3mph
Humidity: 39%   Direction: NA
Pressure: 29.91"   Gusts: NA
Location:  35.42°S, 71.66°W
Report Text: SCIC 191800Z VRB03KT CAVOK 26/11 Q1013
Loading
Personal Weather Stations






























Interactive Weather Map New forecast layout! Learn more

10-Day Weather Forecast

Advertisements
Track Severe Weather on mobile